Aérodrome :
LOGIN :

S'inscrire | Disclaimer

   EN    FR    IT 

 










Légende :    VFR   VFR Marginal   IFR   IFR Intensif   IFR Très Intensif
Visi : 
Plafond : 
>= 8 km
>= 3000ft
5 à 8 km
1000 à 3000 ft
1500m à 5 km
500 à 1000 ft
800 à 1500m
200 à 500 ft
< 800m
< 200 ft
Symboles :   Orages  Brouillard  Fortes neiges  Fortes précipitations  Vent > 20 kt
SIGMETs :   Divers  Orages  Givrage  Turbulence  Onde Orograph.  Cendres Volcan.






- Altitude de l'aérodrome : 297 ft
- Code IATA : UIP


LFRQ - Quimper Pluguffan

DERNIER METAR :
  • 232300Z AUTO 28005KT 240V320 9999 FEW033/// BKN040/// BKN100/// ///TCU 16/15 Q1007

METARs EXPIRÉS :
  • 232230Z AUTO 25005KT 220V280 9999 FEW025 BKN100 OVC120 17/15 Q1007
  • 232200Z AUTO 26009KT 9999 BKN024 OVC072 17/14 Q1007
  • 232130Z AUTO 26012KT 9999 FEW008 OVC015 16/14 Q1007
  • 232100Z AUTO 24009KT 9999 BKN008 BKN042 BKN052 17/16 Q1006 TEMPO 4500 SHRA BKN006 BKN030TCU SCT040CB
  • 232030Z AUTO 31006KT 9000 SCT006 SCT023 OVC034 17/16 Q1004 TEMPO 4500 SHRA BKN006 BKN030TCU SCT040CB

TAF AMD TAF LFRQ
Valide du 23 à 18h jusqu'au 24 à 18h UTC


231735Z 2318/2418 13008KT 9999 BKN025 BKN030 OVC035
TEMPO 2318/2320 3000 -TSRA BKN008 BKN030CB
TEMPO 2320/2411 4500 SHRA BKN006 BKN030TCU SCT040CB
BECMG 2413/2415 31010KT
TEMPO 2414/2418 4500 -SHRA BKN030TCU



MET'MAP, la Météo Aéronautique d'un coup d'oeil ! - Copyright ORBIFLY Décembre 2007 - Disclaimer

ORBIFLY MET'MAP TEAM :

Programmation & Développement : Alexandra Zaïnal
Sur une idée originale de : Baudouin d'Aumeries
Assistance à la programmation : Marc-Olivier Méhu
Soutien technique & logistique : Manuel Goepfert

Contact : metmap@orbifly.com




SOURCES & CREDITS :

   NOAA